Time;durP1;ratioP1;P1;durP2;ratioP2;P2;SDS_P1;SDS_P2;PMS_P1;PMS_P2;Temp;Humidity;BMP_temperature;BMP_pressure;BME280_temperature;BME280_humidity;BME280_pressure;Samples;Min_cycle;Max_cycle;Signal;HPM_P1;HPM_P2
2021/04/05 00:00:15;;;;;;;4.93;2.92;;;21.50;33.20;;;;;;5132692;27;20070;-37
2021/04/05 00:02:42;;;;;;;5.05;3.17;;;21.50;33.20;;;;;;5114232;27;20047;-37
2021/04/05 00:05:18;;;;;;;5.45;3.05;;;21.50;33.20;;;;;;5130215;28;20047;-38
2021/04/05 00:07:47;;;;;;;4.47;2.78;;;21.50;33.20;;;;;;5131164;28;20451;-37
2021/04/05 00:10:15;;;;;;;6.57;2.72;;;21.50;33.20;;;;;;5133054;27;20043;-37
2021/04/05 00:12:42;;;;;;;4.47;2.50;;;21.50;33.20;;;;;;5117356;27;20125;-38
2021/04/05 00:15:10;;;;;;;5.68;2.75;;;21.50;33.20;;;;;;5128635;27;20127;-37
2021/04/05 00:17:39;;;;;;;4.97;2.85;;;21.50;33.10;;;;;;5131990;27;20047;-37
2021/04/05 00:20:14;;;;;;;4.60;2.58;;;21.50;33.20;;;;;;5123407;27;20097;-37
2021/04/05 00:22:44;;;;;;;5.68;3.10;;;21.50;33.20;;;;;;5116414;27;20054;-37
2021/04/05 00:25:12;;;;;;;4.72;3.00;;;21.50;33.10;;;;;;5122363;27;20047;-37
2021/04/05 00:27:39;;;;;;;3.83;2.42;;;21.50;33.10;;;;;;5129292;27;20457;-37
2021/04/05 00:30:18;;;;;;;4.28;2.85;;;21.50;33.20;;;;;;5115920;27;20039;-37
2021/04/05 00:32:46;;;;;;;6.13;2.65;;;21.50;33.10;;;;;;5117698;27;20039;-37
2021/04/05 00:35:18;;;;;;;3.80;2.38;;;21.50;33.10;;;;;;5114693;27;20051;-37
2021/04/05 00:37:47;;;;;;;4.75;2.53;;;21.40;33.00;;;;;;5132578;27;20051;-38
2021/04/05 00:40:17;;;;;;;4.63;2.80;;;21.50;33.10;;;;;;5115183;28;20075;-37
2021/04/05 00:42:45;;;;;;;4.57;2.75;;;21.40;33.00;;;;;;5114311;28;20063;-38
2021/04/05 00:45:15;;;;;;;3.95;2.33;;;21.40;33.00;;;;;;5131399;27;20047;-37
2021/04/05 00:47:50;;;;;;;4.20;2.60;;;21.50;33.10;;;;;;5134097;27;20552;-37
2021/04/05 00:50:32;;;;;;;3.20;2.22;;;21.40;33.00;;;;;;5134409;27;20043;-37
2021/04/05 00:53:04;;;;;;;3.92;2.40;;;21.40;33.00;;;;;;5135323;27;20112;-37
2021/04/05 00:55:32;;;;;;;6.63;2.72;;;21.40;33.00;;;;;;5136849;27;20399;-37
2021/04/05 00:58:01;;;;;;;3.20;2.33;;;21.40;33.00;;;;;;5134003;27;20078;-37
2021/04/05 01:00:41;;;;;;;4.50;2.47;;;21.40;33.00;;;;;;5134808;27;20084;-37
2021/04/05 01:03:11;;;;;;;4.45;2.60;;;21.40;32.90;;;;;;5134935;27;20043;-37
2021/04/05 01:05:39;;;;;;;4.60;2.30;;;21.40;33.00;;;;;;5113811;27;20399;-37
2021/04/05 01:08:07;;;;;;;5.10;2.17;;;21.40;32.90;;;;;;5122727;27;20054;-37
2021/04/05 01:10:34;;;;;;;2.55;1.92;;;21.40;32.90;;;;;;5132948;27;20039;-37
2021/04/05 01:13:00;;;;;;;3.90;2.25;;;21.40;32.90;;;;;;5135494;27;20050;-37
2021/04/05 01:15:27;;;;;;;4.53;2.60;;;21.40;32.90;;;;;;5134522;27;20162;-37
2021/04/05 01:17:54;;;;;;;4.25;2.33;;;21.40;33.60;;;;;;5100884;27;20047;-37
2021/04/05 01:20:20;;;;;;;3.75;2.28;;;21.40;32.90;;;;;;5134290;27;20043;-37
2021/04/05 01:22:49;;;;;;;4.43;2.50;;;21.40;32.90;;;;;;5133363;27;20075;-37
2021/04/05 01:25:18;;;;;;;4.10;2.42;;;21.40;32.90;;;;;;5132625;27;20055;-37
2021/04/05 01:27:46;;;;;;;5.35;2.67;;;21.40;32.90;;;;;;5132571;27;20455;-37
2021/04/05 01:30:28;;;;;;;4.60;2.50;;;21.40;32.90;;;;;;5133564;27;20051;-37
2021/04/05 01:33:11;;;;;;;4.30;2.47;;;21.40;32.80;;;;;;5132347;27;20051;-37
2021/04/05 01:35:46;;;;;;;3.20;2.13;;;21.40;32.90;;;;;;5133574;27;20440;-37
2021/04/05 01:38:14;;;;;;;3.58;2.20;;;21.40;32.90;;;;;;5131758;27;20047;-38
2021/04/05 01:40:44;;;;;;;4.28;2.28;;;21.40;32.90;;;;;;5134867;27;20039;-37
2021/04/05 01:43:12;;;;;;;4.18;2.10;;;21.40;32.90;;;;;;5134700;27;20071;-37
2021/04/05 01:45:39;;;;;;;4.80;2.35;;;21.40;32.90;;;;;;5131903;27;20052;-38
2021/04/05 01:48:07;;;;;;;5.13;2.58;;;21.40;32.90;;;;;;5133468;27;20047;-37
2021/04/05 01:50:34;;;;;;;2.58;1.88;;;21.40;32.80;;;;;;5135663;27;20106;-37
2021/04/05 01:53:04;;;;;;;5.78;2.28;;;21.40;32.90;;;;;;5133574;27;20418;-37
2021/04/05 01:55:35;;;;;;;4.30;2.10;;;21.40;32.90;;;;;;5133717;27;20043;-37
2021/04/05 01:58:06;;;;;;;2.95;2.05;;;21.40;32.80;;;;;;5115640;27;20050;-37
2021/04/05 02:00:37;;;;;;;4.45;2.50;;;21.40;32.80;;;;;;5134086;27;20047;-37
2021/04/05 02:03:09;;;;;;;4.07;2.65;;;21.40;32.80;;;;;;5134088;27;20055;-37
2021/04/05 02:05:38;;;;;;;3.75;2.47;;;21.40;32.80;;;;;;5132243;27;20402;-37
2021/04/05 02:08:07;;;;;;;4.53;2.47;;;21.40;32.80;;;;;;5124506;27;20047;-37
2021/04/05 02:10:35;;;;;;;4.35;2.78;;;21.40;32.80;;;;;;5132876;27;20046;-37
2021/04/05 02:13:02;;;;;;;5.07;2.72;;;21.40;32.80;;;;;;5132380;27;20126;-37
2021/04/05 02:15:33;;;;;;;5.07;2.22;;;21.40;32.80;;;;;;5115769;27;20040;-37
2021/04/05 02:18:00;;;;;;;4.25;2.20;;;21.40;32.80;;;;;;5131520;27;20043;-37
2021/04/05 02:20:27;;;;;;;3.85;2.47;;;21.40;32.80;;;;;;5133689;27;20055;-37
2021/04/05 02:22:54;;;;;;;4.38;2.35;;;21.40;32.80;;;;;;5132931;27;20109;-38
2021/04/05 02:25:23;;;;;;;4.05;2.47;;;21.40;32.80;;;;;;5132930;27;20059;-37
2021/04/05 02:27:51;;;;;;;5.22;2.05;;;21.40;32.80;;;;;;5132457;27;20100;-38
2021/04/05 02:30:27;;;;;;;3.95;2.80;;;21.40;32.80;;;;;;5112374;27;20398;-37
2021/04/05 02:33:00;;;;;;;4.38;2.60;;;21.40;32.80;;;;;;5121559;27;20126;-38
2021/04/05 02:35:29;;;;;;;4.68;2.45;;;21.40;32.80;;;;;;5114951;27;20047;-37
2021/04/05 02:37:58;;;;;;;4.28;2.63;;;21.40;32.80;;;;;;5125062;27;20075;-37
2021/04/05 02:40:25;;;;;;;4.25;2.33;;;21.40;32.80;;;;;;5125958;27;20101;-37
2021/04/05 02:42:54;;;;;;;3.92;2.53;;;21.30;32.70;;;;;;5132165;27;20487;-37
2021/04/05 02:45:24;;;;;;;2.78;2.10;;;21.40;32.80;;;;;;5133154;27;20079;-38
2021/04/05 02:47:57;;;;;;;4.43;2.45;;;21.40;32.80;;;;;;5132354;27;20047;-38
2021/04/05 02:50:25;;;;;;;3.97;2.25;;;21.30;32.70;;;;;;5118391;27;20039;-38
2021/04/05 02:52:55;;;;;;;4.55;2.33;;;21.30;33.30;;;;;;5132420;27;20047;-37
2021/04/05 02:55:23;;;;;;;4.05;1.95;;;21.30;32.70;;;;;;5133391;27;20043;-37
2021/04/05 02:57:51;;;;;;;3.28;1.92;;;21.30;32.70;;;;;;5114321;27;20406;-37
2021/04/05 03:00:19;;;;;;;4.88;1.98;;;21.30;32.70;;;;;;5133443;27;20042;-37
2021/04/05 03:02:49;;;;;;;3.40;2.20;;;21.30;32.70;;;;;;5130686;27;20047;-38
2021/04/05 03:05:18;;;;;;;3.03;2.00;;;21.30;32.70;;;;;;5131814;27;20043;-37
2021/04/05 03:07:45;;;;;;;2.97;2.00;;;21.30;32.70;;;;;;5116741;27;20116;-38
2021/04/05 03:10:13;;;;;;;4.10;2.20;;;21.30;32.60;;;;;;5099101;28;20047;-37
2021/04/05 03:12:42;;;;;;;5.00;2.13;;;21.30;32.60;;;;;;5123241;27;20040;-37
2021/04/05 03:15:13;;;;;;;2.85;1.88;;;21.30;32.70;;;;;;5128004;27;20097;-37
2021/04/05 03:17:41;;;;;;;3.55;2.03;;;21.30;32.60;;;;;;5118523;27;20048;-37
2021/04/05 03:20:11;;;;;;;3.63;1.88;;;21.40;32.70;;;;;;5116603;27;20072;-38
2021/04/05 03:22:40;;;;;;;3.30;2.10;;;21.30;32.60;;;;;;5117654;27;20505;-38
2021/04/05 03:25:21;;;;;;;3.53;2.00;;;21.30;32.60;;;;;;5132999;27;20078;-38
2021/04/05 03:27:49;;;;;;;3.38;2.00;;;21.30;32.60;;;;;;5133949;27;20112;-37
2021/04/05 03:30:42;;;;;;;4.35;2.10;;;21.30;32.60;;;;;;5122796;28;20079;-38
2021/04/05 03:33:25;;;;;;;3.08;1.60;;;21.30;32.60;;;;;;5131138;27;20509;-37
2021/04/05 03:36:08;;;;;;;5.05;2.15;;;21.30;32.60;;;;;;5132288;27;20096;-37
2021/04/05 03:38:36;;;;;;;3.22;1.85;;;21.30;32.60;;;;;;5133706;27;20043;-38
2021/04/05 03:41:09;;;;;;;3.15;1.73;;;21.30;32.60;;;;;;5130697;28;20043;-37
2021/04/05 03:43:48;;;;;;;4.03;1.88;;;21.30;32.60;;;;;;5131975;28;20051;-37
2021/04/05 03:46:38;;;;;;;2.92;1.70;;;21.30;32.60;;;;;;5132656;27;20570;-37
2021/04/05 03:49:21;;;;;;;5.32;1.70;;;21.30;32.70;;;;;;5130796;28;20126;-37
2021/04/05 03:51:54;;;;;;;3.00;1.80;;;21.30;32.60;;;;;;5115318;28;20054;-37
2021/04/05 03:54:23;;;;;;;3.95;1.75;;;21.30;32.60;;;;;;5133562;27;20071;-37
2021/04/05 03:56:53;;;;;;;2.85;1.52;;;21.30;32.70;;;;;;5132321;27;20490;-37
2021/04/05 03:59:33;;;;;;;2.17;1.60;;;21.30;32.60;;;;;;5132312;27;20092;-37
2021/04/05 04:02:04;;;;;;;3.55;1.85;;;21.30;32.70;;;;;;5131304;27;20452;-37
2021/04/05 04:04:36;;;;;;;3.05;1.38;;;21.30;32.70;;;;;;5129882;27;20047;-38
2021/04/05 04:10:09;;;;;;;2.80;1.60;;;21.30;32.70;;;;;;5027820;28;20084;-38
2021/04/05 04:12:38;;;;;;;5.90;1.70;;;21.30;32.70;;;;;;5027428;28;20143;-37
2021/04/05 04:15:07;;;;;;;3.53;1.80;;;21.30;32.70;;;;;;5027827;28;20509;-37
2021/04/05 04:17:36;;;;;;;2.85;1.80;;;21.30;32.70;;;;;;5027717;28;20510;-37
2021/04/05 04:20:25;;;;;;;2.53;1.63;;;21.30;32.70;;;;;;5030434;28;20046;-38
2021/04/05 04:22:56;;;;;;;3.25;1.90;;;21.30;32.70;;;;;;5032679;28;20468;-37
2021/04/05 04:25:24;;;;;;;2.75;1.65;;;21.20;32.60;;;;;;5032699;28;20057;-37
2021/04/05 04:27:51;;;;;;;2.50;1.40;;;21.20;32.60;;;;;;5031456;28;20045;-37
2021/04/05 04:30:34;;;;;;;3.47;1.80;;;21.30;32.70;;;;;;5014593;28;20045;-37
2021/04/05 04:33:11;;;;;;;3.80;1.80;;;21.20;32.60;;;;;;5031243;28;20099;-37
2021/04/05 04:35:40;;;;;;;2.75;1.70;;;21.30;32.80;;;;;;5032627;28;20052;-37
2021/04/05 04:38:07;;;;;;;3.17;2.00;;;21.20;32.70;;;;;;5033825;28;20041;-38
2021/04/05 04:40:35;;;;;;;3.15;1.90;;;21.20;32.60;;;;;;5031724;28;20390;-37
2021/04/05 04:43:05;;;;;;;2.45;1.65;;;21.20;32.60;;;;;;5031816;28;20069;-37
2021/04/05 04:45:33;;;;;;;6.15;2.10;;;21.20;32.60;;;;;;5061057;28;20052;-37
2021/04/05 04:48:00;;;;;;;3.42;1.70;;;21.20;32.60;;;;;;5112062;27;20054;-37
2021/04/05 04:50:28;;;;;;;2.75;1.70;;;21.20;32.60;;;;;;5113886;27;20055;-38
2021/04/05 04:52:55;;;;;;;3.30;1.67;;;21.20;32.60;;;;;;5114886;27;20101;-37
2021/04/05 04:55:24;;;;;;;3.85;1.70;;;21.20;32.60;;;;;;5113566;27;20046;-37
2021/04/05 04:58:01;;;;;;;2.00;1.40;;;21.20;32.60;;;;;;5113420;27;20093;-37
2021/04/05 05:00:33;;;;;;;4.63;1.98;;;21.20;32.60;;;;;;5109794;27;20090;-38
2021/04/05 05:03:01;;;;;;;4.13;1.77;;;21.20;32.60;;;;;;5098844;27;20437;-37
2021/04/05 05:05:32;;;;;;;3.67;1.70;;;21.20;32.60;;;;;;5097518;28;20051;-38
2021/04/05 05:07:59;;;;;;;3.95;1.90;;;21.20;32.60;;;;;;5097748;27;20053;-37
2021/04/05 05:10:27;;;;;;;3.38;1.73;;;21.20;32.60;;;;;;5095953;28;20414;-37
2021/04/05 05:12:54;;;;;;;2.33;1.50;;;21.20;32.60;;;;;;5121462;27;20055;-37
2021/04/05 05:15:22;;;;;;;3.03;1.65;;;21.20;32.70;;;;;;5135701;27;20043;-37
2021/04/05 05:17:49;;;;;;;2.88;1.83;;;21.20;32.60;;;;;;5133528;27;20047;-37
2021/04/05 05:20:18;;;;;;;2.83;1.58;;;21.20;32.60;;;;;;5123705;27;20410;-37
2021/04/05 05:22:51;;;;;;;2.72;1.55;;;21.20;32.60;;;;;;5128872;27;20043;-37
2021/04/05 05:25:20;;;;;;;2.47;1.42;;;21.20;32.60;;;;;;5132011;27;20046;-37
2021/04/05 05:27:53;;;;;;;3.42;1.98;;;21.20;33.20;;;;;;5116822;27;20398;-37
2021/04/05 05:30:21;;;;;;;2.50;1.75;;;21.20;32.60;;;;;;5131465;27;20071;-37
2021/04/05 05:32:49;;;;;;;2.70;1.65;;;21.20;32.60;;;;;;5134573;27;20055;-38
2021/04/05 05:35:17;;;;;;;3.17;1.83;;;21.20;32.60;;;;;;5134599;27;20090;-37
2021/04/05 05:37:45;;;;;;;2.83;2.00;;;21.20;32.60;;;;;;5133900;27;20042;-38
2021/04/05 05:40:18;;;;;;;3.03;1.60;;;21.20;32.60;;;;;;5117487;27;20047;-37
2021/04/05 05:43:05;;;;;;;3.28;2.03;;;21.20;32.60;;;;;;5134377;27;20047;-37
2021/04/05 05:46:08;;;;;;;2.65;1.90;;;21.20;32.60;;;;;;5116971;27;20048;-38
2021/04/05 05:48:58;;;;;;;2.95;1.70;;;21.20;32.60;;;;;;5092999;27;20047;-37
2021/04/05 05:51:33;;;;;;;2.72;1.58;;;21.20;32.60;;;;;;5117378;27;20054;-38
2021/04/05 05:54:15;;;;;;;2.28;1.60;;;21.20;32.60;;;;;;5118361;27;20043;-38
2021/04/05 05:56:54;;;;;;;2.75;1.70;;;21.20;32.60;;;;;;5119862;27;20039;-37
2021/04/05 05:59:44;;;;;;;4.32;1.80;;;21.20;32.60;;;;;;5118319;27;20047;-38
2021/04/05 06:02:20;;;;;;;2.03;1.35;;;21.20;32.60;;;;;;5118198;27;20586;-37
2021/04/05 06:05:05;;;;;;;2.35;1.65;;;21.20;32.60;;;;;;5118402;27;20055;-37
2021/04/05 06:07:50;;;;;;;3.00;1.67;;;21.20;32.60;;;;;;5129610;27;20095;-38
2021/04/05 06:11:12;;;;;;;2.00;1.60;;;21.20;33.20;;;;;;5119507;27;20056;-38
2021/04/05 06:14:10;;;;;;;3.25;1.70;;;21.20;33.20;;;;;;5119151;27;20052;-37
2021/04/05 06:17:04;;;;;;;2.17;1.40;;;21.20;32.60;;;;;;5118235;27;20051;-38
2021/04/05 06:19:50;;;;;;;2.85;1.63;;;21.20;32.60;;;;;;5118148;27;20456;-38
2021/04/05 06:22:32;;;;;;;4.28;1.70;;;21.20;32.60;;;;;;5129612;27;20047;-38
2021/04/05 06:25:24;;;;;;;2.85;1.63;;;21.20;32.60;;;;;;5116564;27;20046;-38
2021/04/05 06:28:09;;;;;;;3.20;1.70;;;21.20;32.60;;;;;;5133305;27;20092;-37
2021/04/05 06:31:00;;;;;;;2.08;1.60;;;21.20;32.60;;;;;;5118516;27;20050;-37
2021/04/05 06:33:52;;;;;;;2.42;1.70;;;21.20;32.60;;;;;;5131876;27;20047;-38
2021/04/05 06:36:34;;;;;;;2.00;1.20;;;21.20;32.60;;;;;;5133929;27;20070;-38
2021/04/05 06:39:09;;;;;;;2.28;1.40;;;21.20;32.60;;;;;;5133379;27;20437;-37
2021/04/05 06:41:55;;;;;;;3.47;1.80;;;21.20;32.60;;;;;;5132087;27;20043;-37
2021/04/05 06:44:51;;;;;;;2.72;1.30;;;21.20;32.60;;;;;;5132188;27;20043;-37
2021/04/05 06:47:36;;;;;;;3.30;1.55;;;21.20;32.60;;;;;;5132277;27;20100;-37
2021/04/05 06:50:12;;;;;;;2.47;1.48;;;21.20;32.60;;;;;;5131259;27;20126;-37
2021/04/05 06:52:54;;;;;;;4.28;1.45;;;21.20;32.60;;;;;;5131536;27;20051;-37
2021/04/05 06:55:45;;;;;;;2.67;1.67;;;21.20;32.60;;;;;;5133471;27;20049;-37
2021/04/05 06:58:35;;;;;;;2.95;1.50;;;21.20;32.60;;;;;;5132507;27;20378;-37
2021/04/05 07:01:11;;;;;;;3.40;1.50;;;21.20;32.70;;;;;;5131493;27;20492;-37
2021/04/05 07:04:13;;;;;;;1.98;1.40;;;21.20;32.70;;;;;;5132309;27;20077;-37
2021/04/05 07:06:50;;;;;;;2.60;1.70;;;21.20;32.60;;;;;;5123121;27;20040;-37
2021/04/05 07:09:52;;;;;;;2.35;1.73;;;21.20;32.60;;;;;;5114510;27;20047;-37
2021/04/05 07:12:35;;;;;;;2.97;1.80;;;21.20;32.70;;;;;;5092911;27;20501;-37
2021/04/05 07:15:15;;;;;;;1.88;1.23;;;21.20;32.70;;;;;;5131877;27;20043;-37
2021/04/05 07:18:00;;;;;;;2.67;1.70;;;21.20;32.80;;;;;;5129705;27;20043;-37
2021/04/05 07:21:04;;;;;;;1.85;1.27;;;21.20;32.80;;;;;;5131353;27;20043;-37
2021/04/05 07:23:45;;;;;;;2.88;1.77;;;21.20;32.80;;;;;;5131251;27;20122;-37
2021/04/05 07:26:41;;;;;;;2.53;1.48;;;21.30;32.90;;;;;;5131077;27;20051;-37
2021/04/05 07:29:35;;;;;;;1.90;1.38;;;21.20;32.80;;;;;;5127913;27;20047;-37
2021/04/05 07:32:19;;;;;;;2.78;1.30;;;21.20;32.80;;;;;;5125259;27;20076;-37
2021/04/05 07:35:04;;;;;;;2.47;1.63;;;21.20;32.80;;;;;;5130407;27;20108;-38
2021/04/05 07:38:02;;;;;;;1.85;1.20;;;21.20;32.90;;;;;;5124866;27;20044;-38
2021/04/05 07:40:54;;;;;;;3.15;1.50;;;21.20;32.90;;;;;;5114434;28;20402;-37
2021/04/05 07:44:30;;;;;;;1.73;1.50;;;21.20;33.00;;;;;;5131540;27;20055;-37
2021/04/05 07:47:35;;;;;;;1.55;1.20;;;21.30;33.00;;;;;;5028354;28;20054;-37
2021/04/05 07:50:10;;;;;;;2.80;1.40;;;21.20;33.00;;;;;;4957326;28;20130;-37
2021/04/05 07:52:47;;;;;;;1.98;1.27;;;21.20;33.10;;;;;;4970988;28;20169;-37
2021/04/05 07:55:15;;;;;;;2.58;1.60;;;21.30;33.20;;;;;;4957657;28;20122;-37
2021/04/05 07:58:06;;;;;;;1.55;0.98;;;21.30;33.20;;;;;;4991782;28;20057;-37
2021/04/05 08:00:52;;;;;;;2.47;1.40;;;21.30;33.20;;;;;;4957895;28;20090;-37
2021/04/05 08:03:31;;;;;;;2.05;1.30;;;21.30;33.20;;;;;;4975393;28;20047;-37
2021/04/05 08:06:03;;;;;;;1.88;1.50;;;21.30;33.30;;;;;;4959855;28;20125;-37
2021/04/05 08:08:43;;;;;;;2.00;1.40;;;21.30;33.30;;;;;;4957768;28;20058;-37
2021/04/05 08:11:30;;;;;;;1.95;1.10;;;21.30;33.30;;;;;;4956700;28;20579;-37
2021/04/05 08:14:08;;;;;;;2.08;1.45;;;21.30;33.30;;;;;;4973773;28;20058;-37
2021/04/05 08:16:55;;;;;;;4.80;1.60;;;21.30;33.40;;;;;;4984364;28;20076;-37
2021/04/05 08:19:42;;;;;;;3.50;1.42;;;21.30;33.40;;;;;;5052832;28;20151;-36
2021/04/05 08:22:30;;;;;;;2.50;1.25;;;21.30;33.50;;;;;;5035822;28;20602;-37
2021/04/05 08:25:14;;;;;;;2.25;1.33;;;21.30;33.50;;;;;;5036458;28;20040;-37
2021/04/05 08:28:07;;;;;;;1.98;1.30;;;21.30;33.40;;;;;;5092112;27;20392;-37
2021/04/05 08:30:45;;;;;;;2.03;1.15;;;21.30;33.50;;;;;;5099025;27;20076;-37
2021/04/05 08:33:17;;;;;;;2.40;1.48;;;21.30;33.50;;;;;;5116198;27;20092;-36
2021/04/05 08:35:51;;;;;;;2.30;1.35;;;21.30;34.10;;;;;;5097639;28;20051;-37
2021/04/05 08:38:30;;;;;;;2.13;1.40;;;21.30;33.50;;;;;;5096313;27;20048;-37
2021/04/05 08:41:28;;;;;;;2.00;1.20;;;21.30;33.50;;;;;;5097881;27;20534;-38
2021/04/05 08:44:21;;;;;;;2.55;1.30;;;21.30;33.60;;;;;;5099430;28;20043;-37
2021/04/05 08:46:49;;;;;;;2.22;1.38;;;21.30;34.20;;;;;;5099524;27;20051;-37
2021/04/05 08:49:19;;;;;;;2.10;1.30;;;21.30;33.60;;;;;;5099555;27;20544;-37
2021/04/05 08:51:57;;;;;;;3.40;1.60;;;21.30;33.60;;;;;;5098602;27;20122;-38
2021/04/05 08:54:28;;;;;;;;;;;21.30;33.50;;;;;;5115741;27;20066;-37
2021/04/05 08:57:00;;;;;;;3.40;1.65;;;21.30;33.50;;;;;;5115580;27;19920;-37
2021/04/05 08:59:35;;;;;;;2.90;1.40;;;21.30;33.50;;;;;;5113993;28;20101;-37
2021/04/05 09:02:21;;;;;;;1.90;1.40;;;21.40;33.60;;;;;;5114808;27;20055;-38
2021/04/05 09:04:49;;;;;;;2.75;1.30;;;21.40;33.60;;;;;;5112986;28;20059;-37
2021/04/05 09:07:34;;;;;;;2.60;1.42;;;21.40;33.60;;;;;;5112783;28;20073;-38
2021/04/05 09:10:08;;;;;;;2.30;1.15;;;21.40;33.60;;;;;;5113296;27;20523;-37
2021/04/05 09:12:37;;;;;;;2.15;1.45;;;21.40;33.70;;;;;;5116668;27;20050;-37
2021/04/05 09:15:29;;;;;;;3.58;1.48;;;21.40;33.70;;;;;;5133667;27;20047;-37
2021/04/05 09:18:34;;;;;;;2.47;1.10;;;21.40;33.70;;;;;;5134974;27;20044;-37
2021/04/05 09:21:40;;;;;;;2.70;1.40;;;21.40;33.60;;;;;;5033083;28;20748;-38
2021/04/05 09:24:09;;;;;;;2.00;1.40;;;21.40;33.60;;;;;;5022357;28;20045;-37
2021/04/05 09:26:57;;;;;;;2.80;1.20;;;21.40;33.60;;;;;;5014769;28;20131;-38
2021/04/05 09:29:39;;;;;;;2.35;1.60;;;21.40;33.50;;;;;;5027027;28;20050;-37
2021/04/05 09:32:17;;;;;;;3.00;1.42;;;21.40;33.60;;;;;;5031421;28;20050;-37
2021/04/05 09:35:21;;;;;;;4.07;1.50;;;21.40;33.50;;;;;;5031857;28;20045;-37
2021/04/05 09:38:02;;;;;;;2.13;1.10;;;21.40;33.50;;;;;;5031365;28;20088;-37
2021/04/05 09:40:39;;;;;;;3.08;1.38;;;21.40;33.50;;;;;;5014938;28;20042;-38
2021/04/05 09:43:11;;;;;;;2.40;1.42;;;21.40;33.50;;;;;;5031540;28;20057;-37
2021/04/05 09:45:51;;;;;;;1.85;1.40;;;21.40;33.50;;;;;;5031732;28;20049;-37
2021/04/05 09:48:36;;;;;;;1.77;1.30;;;21.40;33.50;;;;;;5030889;28;20049;-37
2021/04/05 09:51:22;;;;;;;1.73;1.15;;;21.40;33.50;;;;;;5031760;28;20493;-37
2021/04/05 09:54:12;;;;;;;2.80;1.40;;;21.40;33.50;;;;;;5029254;28;20057;-37
2021/04/05 09:56:48;;;;;;;2.90;1.17;;;21.40;33.50;;;;;;5052477;27;20043;-37
2021/04/05 09:59:19;;;;;;;1.70;1.10;;;21.40;33.50;;;;;;5134216;27;20040;-37
2021/04/05 10:01:54;;;;;;;3.30;1.40;;;21.40;33.50;;;;;;5132802;27;20088;-37
2021/04/05 10:04:24;;;;;;;2.22;1.35;;;21.40;33.50;;;;;;5132843;27;20046;-38
2021/04/05 10:06:53;;;;;;;3.50;1.50;;;21.50;33.50;;;;;;5131994;27;20482;-37
2021/04/05 10:09:30;;;;;;;1.80;1.40;;;21.50;33.50;;;;;;5132198;27;20043;-37
2021/04/05 10:12:02;;;;;;;3.63;1.55;;;21.50;33.50;;;;;;5133844;27;20078;-37
2021/04/05 10:14:29;;;;;;;3.15;1.30;;;21.50;33.50;;;;;;5131119;27;20119;-37
2021/04/05 10:16:58;;;;;;;1.92;1.20;;;21.50;33.50;;;;;;5132906;27;20108;-38
2021/04/05 10:19:33;;;;;;;2.57;1.40;;;21.50;33.50;;;;;;5115272;27;20039;-38
2021/04/05 10:22:10;;;;;;;3.35;1.20;;;21.50;34.00;;;;;;5132829;27;20100;-38
2021/04/05 10:24:42;;;;;;;2.60;1.38;;;21.50;33.40;;;;;;5132273;27;20078;-37
2021/04/05 10:27:13;;;;;;;1.98;1.30;;;21.50;33.40;;;;;;5132062;27;20043;-37
2021/04/05 10:29:43;;;;;;;1.98;1.30;;;21.50;33.40;;;;;;5128851;27;20088;-38
2021/04/05 10:32:14;;;;;;;2.08;1.10;;;21.50;33.30;;;;;;5133457;27;20144;-38
2021/04/05 10:34:45;;;;;;;2.22;1.10;;;21.50;33.40;;;;;;5114085;27;20170;-38
2021/04/05 10:37:24;;;;;;;2.83;1.25;;;21.50;33.30;;;;;;5116330;27;20058;-37
2021/04/05 10:39:52;;;;;;;3.28;1.60;;;21.50;33.30;;;;;;5117134;27;20129;-37
2021/04/05 10:42:26;;;;;;;1.63;1.27;;;21.50;33.30;;;;;;5132329;27;20051;-37
2021/04/05 10:45:15;;;;;;;4.38;1.63;;;21.50;33.30;;;;;;5132313;27;20051;-38
2021/04/05 10:47:52;;;;;;;1.20;0.90;;;21.50;33.30;;;;;;5131960;27;20075;-37
2021/04/05 10:50:28;;;;;;;1.55;1.10;;;21.50;33.30;;;;;;5115357;27;20058;-37
2021/04/05 10:53:06;;;;;;;2.47;1.58;;;21.50;33.20;;;;;;5115648;27;20429;-37
2021/04/05 10:55:39;;;;;;;1.83;1.00;;;21.50;33.30;;;;;;5126516;27;20055;-37
2021/04/05 10:58:10;;;;;;;1.33;1.00;;;21.50;33.20;;;;;;5131606;27;20043;-37
2021/04/05 11:00:39;;;;;;;2.60;1.23;;;21.50;33.20;;;;;;5119395;27;20044;-37
2021/04/05 11:03:17;;;;;;;2.83;1.35;;;21.50;33.20;;;;;;5114844;27;20047;-37
2021/04/05 11:05:47;;;;;;;1.35;1.15;;;21.50;33.20;;;;;;5125279;27;20079;-37
2021/04/05 11:08:21;;;;;;;1.70;1.10;;;21.50;33.20;;;;;;5107456;27;20096;-37
2021/04/05 11:10:49;;;;;;;2.35;1.27;;;21.50;33.20;;;;;;5132483;27;20043;-37
2021/04/05 11:13:20;;;;;;;4.75;1.30;;;21.50;33.20;;;;;;5131329;27;20047;-37
2021/04/05 11:15:48;;;;;;;1.92;1.00;;;21.50;33.20;;;;;;5132929;27;20054;-37
2021/04/05 11:18:19;;;;;;;2.97;1.48;;;21.50;33.20;;;;;;5133205;27;20062;-38
2021/04/05 11:20:50;;;;;;;2.53;1.20;;;21.50;33.20;;;;;;5131525;27;20043;-38
2021/04/05 11:23:23;;;;;;;2.05;1.13;;;21.50;33.20;;;;;;5131171;27;20039;-37
2021/04/05 11:25:52;;;;;;;3.90;1.25;;;21.50;33.30;;;;;;5097712;27;20043;-37
2021/04/05 11:28:31;;;;;;;2.55;1.35;;;21.50;33.30;;;;;;5126604;27;20047;-37
2021/04/05 11:31:19;;;;;;;3.67;1.05;;;21.50;33.30;;;;;;5112744;27;20138;-37
2021/04/05 11:33:54;;;;;;;3.45;1.10;;;21.50;33.30;;;;;;5130537;27;20079;-37
2021/04/05 11:36:22;;;;;;;1.58;1.02;;;21.50;33.30;;;;;;5130146;28;20048;-38
2021/04/05 11:38:50;;;;;;;3.10;1.35;;;21.50;33.30;;;;;;5129572;28;20046;-38
2021/04/05 11:41:26;;;;;;;3.08;1.30;;;21.50;33.30;;;;;;5129999;27;20547;-38
2021/04/05 11:44:02;;;;;;;2.35;1.05;;;21.50;33.30;;;;;;5130706;27;20047;-37
2021/04/05 11:46:36;;;;;;;2.03;0.90;;;21.50;33.40;;;;;;5130148;27;20086;-38
2021/04/05 11:49:08;;;;;;;4.95;1.48;;;21.50;33.40;;;;;;5130871;27;20077;-38
2021/04/05 11:51:46;;;;;;;5.53;1.13;;;21.50;33.50;;;;;;5130011;27;20089;-38
2021/04/05 11:54:49;;;;;;;1.52;0.88;;;21.50;33.50;;;;;;5132665;27;20421;-37
2021/04/05 11:57:36;;;;;;;3.97;1.20;;;21.50;33.50;;;;;;5127874;27;20451;-38
2021/04/05 12:00:15;;;;;;;5.32;1.00;;;21.50;33.50;;;;;;5132267;27;20043;-38
2021/04/05 12:02:54;;;;;;;3.53;1.10;;;21.50;33.50;;;;;;5129356;27;20047;-38
2021/04/05 12:05:31;;;;;;;8.00;1.17;;;21.50;33.50;;;;;;5131187;27;20070;-38
2021/04/05 12:08:13;;;;;;;5.28;0.98;;;21.50;33.50;;;;;;5116413;27;20631;-38
2021/04/05 12:10:43;;;;;;;1.30;1.08;;;21.50;33.50;;;;;;5128077;27;20388;-38
2021/04/05 12:13:19;;;;;;;2.88;1.23;;;21.50;33.50;;;;;;5130643;27;20558;-38
2021/04/05 12:15:47;;;;;;;4.75;1.13;;;21.60;33.60;;;;;;5114635;28;20039;-38
2021/04/05 12:18:21;;;;;;;3.22;1.02;;;21.50;33.50;;;;;;5130788;27;20043;-37
2021/04/05 12:20:57;;;;;;;3.08;1.15;;;21.50;33.50;;;;;;5129474;27;20047;-37
2021/04/05 12:23:24;;;;;;;3.05;1.20;;;21.50;33.50;;;;;;5133195;27;20062;-38
2021/04/05 12:25:52;;;;;;;3.30;0.90;;;21.60;33.60;;;;;;5115284;28;20120;-38
2021/04/05 12:28:19;;;;;;;2.47;0.82;;;21.60;33.60;;;;;;5131506;27;20092;-37
2021/04/05 12:30:47;;;;;;;9.27;1.52;;;21.50;33.50;;;;;;5122906;27;20047;-37
2021/04/05 12:33:24;;;;;;;4.47;0.90;;;21.60;33.50;;;;;;5115326;27;20062;-37
2021/04/05 12:35:56;;;;;;;4.72;0.80;;;21.60;33.60;;;;;;5131895;27;20039;-37
2021/04/05 12:38:39;;;;;;;3.60;1.10;;;21.60;33.50;;;;;;5114582;28;20058;-38
2021/04/05 12:41:08;;;;;;;4.50;1.13;;;21.60;33.50;;;;;;5115605;28;20057;-39
2021/04/05 12:43:37;;;;;;;3.63;0.98;;;21.60;33.50;;;;;;5137198;27;20061;-38
2021/04/05 12:46:15;;;;;;;2.60;1.35;;;21.60;33.50;;;;;;5135366;27;20047;-37
2021/04/05 12:48:45;;;;;;;4.40;1.10;;;21.60;33.50;;;;;;5116075;27;20100;-37
2021/04/05 12:51:15;;;;;;;4.72;1.13;;;21.60;33.50;;;;;;5117193;27;20047;-38
2021/04/05 12:53:44;;;;;;;2.22;1.00;;;21.60;33.40;;;;;;5124166;27;20054;-38
2021/04/05 12:56:21;;;;;;;2.85;0.90;;;21.60;33.30;;;;;;5127651;27;20047;-37
2021/04/05 12:58:53;;;;;;;2.13;1.00;;;21.60;33.40;;;;;;5116786;27;20096;-38
2021/04/05 13:01:49;;;;;;;2.97;0.77;;;21.60;33.30;;;;;;5128635;27;20055;-37
2021/04/05 13:04:21;;;;;;;2.45;1.10;;;21.60;33.30;;;;;;5119628;27;20052;-37
2021/04/05 13:07:13;;;;;;;1.48;0.95;;;21.60;33.30;;;;;;5120139;27;20070;-37
2021/04/05 13:10:00;;;;;;;3.25;1.00;;;21.60;33.30;;;;;;5129926;27;20043;-37
2021/04/05 13:12:43;;;;;;;1.77;0.88;;;21.60;33.30;;;;;;5126390;27;20399;-38
2021/04/05 13:15:18;;;;;;;3.60;1.13;;;21.60;33.20;;;;;;5120816;27;20047;-37
2021/04/05 13:18:13;;;;;;;5.32;1.08;;;21.60;33.20;;;;;;5119551;27;20122;-38
2021/04/05 13:20:46;;;;;;;3.40;0.85;;;21.60;33.20;;;;;;5130102;27;20048;-37
2021/04/05 13:23:14;;;;;;;1.50;1.10;;;21.60;33.20;;;;;;5126380;27;20582;-37
2021/04/05 13:26:06;;;;;;;2.88;1.05;;;21.60;33.20;;;;;;5128699;27;20043;-38
2021/04/05 13:28:34;;;;;;;3.67;1.10;;;21.60;33.20;;;;;;5127148;27;20043;-37
2021/04/05 13:31:06;;;;;;;1.75;0.95;;;21.60;33.20;;;;;;5122206;27;20388;-37
2021/04/05 13:33:36;;;;;;;3.10;1.00;;;21.60;33.10;;;;;;5124898;27;20058;-38
2021/04/05 13:36:15;;;;;;;2.95;0.82;;;21.60;33.10;;;;;;5133401;27;20119;-37